sensor_id;sensor_type;location;lat;lon;timestamp;pressure;altitude;pressure_sealevel;temperature;humidity
13124;BME280;6627;50.920;12.050;2023-01-28T00:00:56;99412.03;;;8.20;64.01
13124;BME280;6627;50.920;12.050;2023-01-28T00:03:23;99406.34;;;8.22;63.74
13124;BME280;6627;50.920;12.050;2023-01-28T00:05:51;99507.31;;;9.28;61.91
13124;BME280;6627;50.920;12.050;2023-01-28T00:08:19;99326.19;;;8.27;61.15
13124;BME280;6627;50.920;12.050;2023-01-28T00:10:46;99436.88;;;8.63;61.97
13124;BME280;6627;50.920;12.050;2023-01-28T00:13:14;99383.69;;;8.18;62.79
13124;BME280;6627;50.920;12.050;2023-01-28T00:15:42;99403.38;;;8.13;63.07
13124;BME280;6627;50.920;12.050;2023-01-28T00:18:09;99360.16;;;7.67;64.17
13124;BME280;6627;50.920;12.050;2023-01-28T00:20:36;99428.44;;;8.14;64.25
13124;BME280;6627;50.920;12.050;2023-01-28T00:23:04;99399.06;;;8.12;63.30
13124;BME280;6627;50.920;12.050;2023-01-28T00:25:31;99376.63;;;7.86;64.33
13124;BME280;6627;50.920;12.050;2023-01-28T00:27:58;99318.56;;;7.48;64.02
13124;BME280;6627;50.920;12.050;2023-01-28T00:30:25;99312.03;;;7.13;65.00
13124;BME280;6627;50.920;12.050;2023-01-28T00:32:54;99320.97;;;7.29;64.77
13124;BME280;6627;50.920;12.050;2023-01-28T00:35:21;99430.34;;;8.18;63.96
13124;BME280;6627;50.920;12.050;2023-01-28T00:37:49;99353.97;;;7.77;63.77
13124;BME280;6627;50.920;12.050;2023-01-28T00:40:16;99381.78;;;7.98;63.66
13124;BME280;6627;50.920;12.050;2023-01-28T00:42:44;99322.13;;;7.64;63.25
13124;BME280;6627;50.920;12.050;2023-01-28T00:45:11;99278.03;;;7.02;64.28
13124;BME280;6627;50.920;12.050;2023-01-28T00:47:48;99352.63;;;7.79;63.32
13124;BME280;6627;50.920;12.050;2023-01-28T00:50:17;99383.91;;;7.96;63.77
13124;BME280;6627;50.920;12.050;2023-01-28T00:52:46;99301.00;;;7.20;64.44
13124;BME280;6627;50.920;12.050;2023-01-28T00:55:14;99302.09;;;7.34;63.39
13124;BME280;6627;50.920;12.050;2023-01-28T00:57:42;99245.06;;;6.64;64.64
13124;BME280;6627;50.920;12.050;2023-01-28T01:00:10;99347.19;;;7.59;63.94
13124;BME280;6627;50.920;12.050;2023-01-28T01:02:37;99376.34;;;7.88;63.25
13124;BME280;6627;50.920;12.050;2023-01-28T01:05:06;99346.09;;;7.60;63.95
13124;BME280;6627;50.920;12.050;2023-01-28T01:07:34;99314.78;;;7.33;63.98
13124;BME280;6627;50.920;12.050;2023-01-28T01:10:09;99300.22;;;7.29;63.87
13124;BME280;6627;50.920;12.050;2023-01-28T01:12:38;99328.50;;;7.27;64.48
13124;BME280;6627;50.920;12.050;2023-01-28T01:15:07;99346.59;;;7.42;64.17
13124;BME280;6627;50.920;12.050;2023-01-28T01:17:36;99353.59;;;7.43;64.28
13124;BME280;6627;50.920;12.050;2023-01-28T01:20:05;99358.19;;;7.52;64.43
13124;BME280;6627;50.920;12.050;2023-01-28T01:22:35;99360.69;;;7.74;63.49
13124;BME280;6627;50.920;12.050;2023-01-28T01:25:04;99308.78;;;7.11;64.26
13124;BME280;6627;50.920;12.050;2023-01-28T01:27:32;99327.72;;;7.37;63.58
13124;BME280;6627;50.920;12.050;2023-01-28T01:29:59;99389.88;;;8.08;62.97
13124;BME280;6627;50.920;12.050;2023-01-28T01:32:29;99413.69;;;8.52;61.88
13124;BME280;6627;50.920;12.050;2023-01-28T01:34:56;99354.25;;;7.91;62.21
13124;BME280;6627;50.920;12.050;2023-01-28T01:37:23;99319.72;;;7.82;61.70
13124;BME280;6627;50.920;12.050;2023-01-28T01:39:52;99212.31;;;6.88;63.01
13124;BME280;6627;50.920;12.050;2023-01-28T01:42:20;99258.16;;;7.13;62.87
13124;BME280;6627;50.920;12.050;2023-01-28T01:45:01;99401.19;;;8.10;62.89
13124;BME280;6627;50.920;12.050;2023-01-28T01:47:36;99454.72;;;8.64;61.58
13124;BME280;6627;50.920;12.050;2023-01-28T01:50:16;99346.72;;;8.13;61.06
13124;BME280;6627;50.920;12.050;2023-01-28T01:52:52;99219.91;;;7.16;62.14
13124;BME280;6627;50.920;12.050;2023-01-28T01:55:26;99313.75;;;7.65;62.17
13124;BME280;6627;50.920;12.050;2023-01-28T01:58:03;99262.41;;;6.99;63.56
13124;BME280;6627;50.920;12.050;2023-01-28T02:00:33;99446.56;;;8.33;62.03
13124;BME280;6627;50.920;12.050;2023-01-28T02:03:01;99368.28;;;7.93;61.50
13124;BME280;6627;50.920;12.050;2023-01-28T02:05:28;99290.25;;;7.30;62.43
13124;BME280;6627;50.920;12.050;2023-01-28T02:07:58;99431.47;;;8.32;62.30
13124;BME280;6627;50.920;12.050;2023-01-28T02:10:52;99343.47;;;7.91;61.09
13124;BME280;6627;50.920;12.050;2023-01-28T02:13:25;99449.84;;;8.41;61.39
13124;BME280;6627;50.920;12.050;2023-01-28T02:15:56;99532.47;;;9.23;60.28
13124;BME280;6627;50.920;12.050;2023-01-28T02:18:25;99465.50;;;8.95;59.50
13124;BME280;6627;50.920;12.050;2023-01-28T02:21:42;99476.22;;;9.35;57.95
13124;BME280;6627;50.920;12.050;2023-01-28T02:24:51;99369.34;;;8.89;58.33
13124;BME280;6627;50.920;12.050;2023-01-28T02:27:32;99443.75;;;9.46;57.37
13124;BME280;6627;50.920;12.050;2023-01-28T02:30:12;99429.22;;;9.26;57.78
13124;BME280;6627;50.920;12.050;2023-01-28T02:32:52;99465.88;;;9.63;57.44
13124;BME280;6627;50.920;12.050;2023-01-28T02:35:28;99373.78;;;9.29;56.99
13124;BME280;6627;50.920;12.050;2023-01-28T02:38:03;99323.69;;;8.87;57.80
13124;BME280;6627;50.920;12.050;2023-01-28T02:40:40;99374.97;;;9.02;57.83
13124;BME280;6627;50.920;12.050;2023-01-28T02:43:30;99279.81;;;8.46;58.31
13124;BME280;6627;50.920;12.050;2023-01-28T02:46:09;99366.66;;;8.78;58.57
13124;BME280;6627;50.920;12.050;2023-01-28T02:48:56;99257.16;;;7.86;60.16
13124;BME280;6627;50.920;12.050;2023-01-28T02:51:35;99463.28;;;9.27;59.06
13124;BME280;6627;50.920;12.050;2023-01-28T02:54:12;99388.13;;;9.34;57.43
13124;BME280;6627;50.920;12.050;2023-01-28T02:56:49;99424.03;;;9.40;57.60
13124;BME280;6627;50.920;12.050;2023-01-28T02:59:28;99131.31;;;7.35;59.41
13124;BME280;6627;50.920;12.050;2023-01-28T03:02:11;99248.00;;;7.66;60.64
13124;BME280;6627;50.920;12.050;2023-01-28T03:04:47;99207.56;;;7.36;61.02
13124;BME280;6627;50.920;12.050;2023-01-28T03:07:17;99381.81;;;8.49;60.00
13124;BME280;6627;50.920;12.050;2023-01-28T03:09:48;99270.66;;;7.70;60.34
13124;BME280;6627;50.920;12.050;2023-01-28T03:12:20;99332.41;;;8.18;60.40
13124;BME280;6627;50.920;12.050;2023-01-28T03:15:12;99347.28;;;8.51;59.14
13124;BME280;6627;50.920;12.050;2023-01-28T03:18:05;99331.63;;;8.38;59.69
13124;BME280;6627;50.920;12.050;2023-01-28T03:21:03;99391.81;;;8.64;59.78
13124;BME280;6627;50.920;12.050;2023-01-28T03:23:55;99253.94;;;7.89;59.55
13124;BME280;6627;50.920;12.050;2023-01-28T03:26:47;99272.28;;;7.66;61.02
13124;BME280;6627;50.920;12.050;2023-01-28T03:29:39;99406.09;;;8.74;59.50
13124;BME280;6627;50.920;12.050;2023-01-28T03:32:27;99342.41;;;8.48;59.42
13124;BME280;6627;50.920;12.050;2023-01-28T03:35:17;99301.94;;;7.92;60.57
13124;BME280;6627;50.920;12.050;2023-01-28T03:38:04;99392.09;;;8.42;60.45
13124;BME280;6627;50.920;12.050;2023-01-28T03:40:49;99300.31;;;7.91;60.20
13124;BME280;6627;50.920;12.050;2023-01-28T03:43:17;99121.28;;;6.64;61.11
13124;BME280;6627;50.920;12.050;2023-01-28T03:45:45;99243.41;;;7.41;60.65
13124;BME280;6627;50.920;12.050;2023-01-28T03:48:16;99353.44;;;7.85;61.17
13124;BME280;6627;50.920;12.050;2023-01-28T03:50:45;99375.31;;;8.14;60.23
13124;BME280;6627;50.920;12.050;2023-01-28T03:53:13;99274.41;;;7.44;61.16
13124;BME280;6627;50.920;12.050;2023-01-28T03:55:42;99266.78;;;7.20;61.54
13124;BME280;6627;50.920;12.050;2023-01-28T03:58:11;99247.34;;;6.98;62.01
13124;BME280;6627;50.920;12.050;2023-01-28T04:00:40;99363.66;;;7.63;62.08
13124;BME280;6627;50.920;12.050;2023-01-28T04:03:07;99332.63;;;7.60;61.89
13124;BME280;6627;50.920;12.050;2023-01-28T04:05:42;99275.66;;;7.11;62.41
13124;BME280;6627;50.920;12.050;2023-01-28T04:08:11;99278.63;;;7.09;62.51
13124;BME280;6627;50.920;12.050;2023-01-28T04:10:39;99355.25;;;7.54;62.12
13124;BME280;6627;50.920;12.050;2023-01-28T04:13:06;99482.25;;;8.51;60.25
13124;BME280;6627;50.920;12.050;2023-01-28T04:15:34;99410.66;;;8.23;60.10
13124;BME280;6627;50.920;12.050;2023-01-28T04:18:03;99437.41;;;8.40;59.50
13124;BME280;6627;50.920;12.050;2023-01-28T04:20:30;99290.56;;;7.44;60.68
13124;BME280;6627;50.920;12.050;2023-01-28T04:22:58;99328.59;;;7.68;60.82
13124;BME280;6627;50.920;12.050;2023-01-28T04:25:26;99341.28;;;7.88;59.84
13124;BME280;6627;50.920;12.050;2023-01-28T04:27:54;99387.69;;;7.95;60.33
13124;BME280;6627;50.920;12.050;2023-01-28T04:30:22;99406.66;;;8.51;58.45
13124;BME280;6627;50.920;12.050;2023-01-28T04:32:51;99281.44;;;7.75;59.18
13124;BME280;6627;50.920;12.050;2023-01-28T04:35:18;99373.69;;;8.23;58.93
13124;BME280;6627;50.920;12.050;2023-01-28T04:37:47;99251.47;;;7.36;59.89
13124;BME280;6627;50.920;12.050;2023-01-28T04:40:14;99234.38;;;6.95;61.03
13124;BME280;6627;50.920;12.050;2023-01-28T04:42:52;99331.00;;;7.44;61.64
13124;BME280;6627;50.920;12.050;2023-01-28T04:45:20;99290.50;;;7.23;61.36
13124;BME280;6627;50.920;12.050;2023-01-28T04:47:48;99246.72;;;6.75;62.53
13124;BME280;6627;50.920;12.050;2023-01-28T04:50:16;99293.38;;;6.91;62.95
13124;BME280;6627;50.920;12.050;2023-01-28T04:52:45;99389.75;;;7.52;61.57
13124;BME280;6627;50.920;12.050;2023-01-28T04:55:13;99290.72;;;7.06;61.61
13124;BME280;6627;50.920;12.050;2023-01-28T04:57:42;99288.06;;;7.17;61.36
13124;BME280;6627;50.920;12.050;2023-01-28T05:00:10;99273.72;;;6.96;61.89
13124;BME280;6627;50.920;12.050;2023-01-28T05:02:38;99305.00;;;7.12;61.95
13124;BME280;6627;50.920;12.050;2023-01-28T05:05:06;99269.69;;;6.98;61.61
13124;BME280;6627;50.920;12.050;2023-01-28T05:07:35;99356.31;;;7.48;61.59
13124;BME280;6627;50.920;12.050;2023-01-28T05:10:03;99267.28;;;7.07;61.10
13124;BME280;6627;50.920;12.050;2023-01-28T05:12:31;99291.63;;;7.38;60.20
13124;BME280;6627;50.920;12.050;2023-01-28T05:15:01;99313.94;;;7.18;60.92
13124;BME280;6627;50.920;12.050;2023-01-28T05:17:29;99304.56;;;7.30;60.33
13124;BME280;6627;50.920;12.050;2023-01-28T05:19:56;99351.50;;;7.60;59.96
13124;BME280;6627;50.920;12.050;2023-01-28T05:22:24;99343.97;;;7.77;58.89
13124;BME280;6627;50.920;12.050;2023-01-28T05:24:51;99370.97;;;7.88;59.42
13124;BME280;6627;50.920;12.050;2023-01-28T05:27:18;99307.78;;;7.32;59.90
13124;BME280;6627;50.920;12.050;2023-01-28T05:29:45;99473.88;;;8.63;58.23
13124;BME280;6627;50.920;12.050;2023-01-28T05:32:14;99220.19;;;7.30;58.82
13124;BME280;6627;50.920;12.050;2023-01-28T05:34:41;99436.91;;;8.43;58.37
13124;BME280;6627;50.920;12.050;2023-01-28T05:37:09;99218.59;;;7.39;58.54
13124;BME280;6627;50.920;12.050;2023-01-28T05:39:37;99266.84;;;7.30;59.06
13124;BME280;6627;50.920;12.050;2023-01-28T05:42:05;99368.25;;;7.82;58.82
13124;BME280;6627;50.920;12.050;2023-01-28T05:44:32;99269.78;;;7.29;58.96
13124;BME280;6627;50.920;12.050;2023-01-28T05:46:59;99237.06;;;6.85;59.90
13124;BME280;6627;50.920;12.050;2023-01-28T05:49:28;99260.25;;;6.96;60.21
13124;BME280;6627;50.920;12.050;2023-01-28T05:51:56;99318.06;;;7.51;59.27
13124;BME280;6627;50.920;12.050;2023-01-28T05:54:24;99423.56;;;8.00;59.12
13124;BME280;6627;50.920;12.050;2023-01-28T05:56:52;99335.38;;;7.70;59.11
13124;BME280;6627;50.920;12.050;2023-01-28T05:59:20;99160.50;;;6.55;59.34
13124;BME280;6627;50.920;12.050;2023-01-28T06:01:47;99256.47;;;6.92;60.20
13124;BME280;6627;50.920;12.050;2023-01-28T06:04:15;99347.69;;;7.46;59.47
13124;BME280;6627;50.920;12.050;2023-01-28T06:06:45;99283.22;;;7.19;59.30
13124;BME280;6627;50.920;12.050;2023-01-28T06:09:12;99310.44;;;7.22;59.71
13124;BME280;6627;50.920;12.050;2023-01-28T06:11:39;99224.47;;;6.38;61.02
13124;BME280;6627;50.920;12.050;2023-01-28T06:14:07;99329.25;;;7.12;60.08
13124;BME280;6627;50.920;12.050;2023-01-28T06:16:34;99277.94;;;6.81;60.30
13124;BME280;6627;50.920;12.050;2023-01-28T06:19:02;99279.03;;;6.86;60.72
13124;BME280;6627;50.920;12.050;2023-01-28T06:21:30;99252.63;;;6.72;60.04
13124;BME280;6627;50.920;12.050;2023-01-28T06:23:58;99316.84;;;7.11;60.00
13124;BME280;6627;50.920;12.050;2023-01-28T06:26:26;99318.41;;;6.97;60.77
13124;BME280;6627;50.920;12.050;2023-01-28T06:28:54;99355.75;;;7.41;59.79
13124;BME280;6627;50.920;12.050;2023-01-28T06:31:21;99269.66;;;6.93;59.77
13124;BME280;6627;50.920;12.050;2023-01-28T06:33:48;99289.66;;;6.55;61.15
13124;BME280;6627;50.920;12.050;2023-01-28T06:36:16;99316.81;;;6.96;60.65
13124;BME280;6627;50.920;12.050;2023-01-28T06:38:44;99388.06;;;7.30;60.46
13124;BME280;6627;50.920;12.050;2023-01-28T06:41:13;99383.22;;;7.38;59.82
13124;BME280;6627;50.920;12.050;2023-01-28T06:43:42;99339.97;;;6.97;60.40
13124;BME280;6627;50.920;12.050;2023-01-28T06:46:09;99406.97;;;7.41;60.35
13124;BME280;6627;50.920;12.050;2023-01-28T06:48:36;99213.13;;;6.25;61.07
13124;BME280;6627;50.920;12.050;2023-01-28T06:51:05;99304.75;;;6.56;61.54
13124;BME280;6627;50.920;12.050;2023-01-28T06:53:33;99293.69;;;6.52;60.89
13124;BME280;6627;50.920;12.050;2023-01-28T06:56:01;99326.41;;;6.81;60.87
13124;BME280;6627;50.920;12.050;2023-01-28T06:58:29;99255.66;;;6.34;60.83
13124;BME280;6627;50.920;12.050;2023-01-28T07:00:56;99380.19;;;7.19;60.01
13124;BME280;6627;50.920;12.050;2023-01-28T07:03:25;99434.22;;;7.54;59.53
13124;BME280;6627;50.920;12.050;2023-01-28T07:05:53;99303.94;;;7.13;57.70
13124;BME280;6627;50.920;12.050;2023-01-28T07:08:20;99322.56;;;7.25;58.31
13124;BME280;6627;50.920;12.050;2023-01-28T07:10:48;99281.03;;;6.48;60.88
13124;BME280;6627;50.920;12.050;2023-01-28T07:13:23;99275.03;;;6.36;60.84
13124;BME280;6627;50.920;12.050;2023-01-28T07:15:51;99224.41;;;6.27;59.52
13124;BME280;6627;50.920;12.050;2023-01-28T07:18:21;99302.75;;;6.83;59.27
13124;BME280;6627;50.920;12.050;2023-01-28T07:20:49;99293.28;;;6.76;59.08
13124;BME280;6627;50.920;12.050;2023-01-28T07:23:17;99364.31;;;7.22;58.54
13124;BME280;6627;50.920;12.050;2023-01-28T07:25:44;99303.09;;;7.07;57.82
13124;BME280;6627;50.920;12.050;2023-01-28T07:28:12;99357.28;;;7.16;58.53
13124;BME280;6627;50.920;12.050;2023-01-28T07:30:39;99254.72;;;6.60;58.54
13124;BME280;6627;50.920;12.050;2023-01-28T07:33:08;99261.25;;;6.74;58.03
13124;BME280;6627;50.920;12.050;2023-01-28T07:35:36;99302.75;;;6.83;58.97
13124;BME280;6627;50.920;12.050;2023-01-28T07:38:04;99290.38;;;6.88;57.92
13124;BME280;6627;50.920;12.050;2023-01-28T07:40:31;99354.38;;;7.33;57.36
13124;BME280;6627;50.920;12.050;2023-01-28T07:42:59;99353.09;;;7.51;56.38
13124;BME280;6627;50.920;12.050;2023-01-28T07:45:27;99282.91;;;7.05;57.52
13124;BME280;6627;50.920;12.050;2023-01-28T07:47:57;99271.06;;;7.11;56.66
13124;BME280;6627;50.920;12.050;2023-01-28T07:50:29;99231.69;;;6.90;56.97
13124;BME280;6627;50.920;12.050;2023-01-28T07:53:01;99244.91;;;6.91;56.95
13124;BME280;6627;50.920;12.050;2023-01-28T07:55:28;99235.91;;;6.60;57.76
13124;BME280;6627;50.920;12.050;2023-01-28T07:57:58;99261.16;;;6.59;58.33
13124;BME280;6627;50.920;12.050;2023-01-28T08:00:29;99281.75;;;6.86;58.18
13124;BME280;6627;50.920;12.050;2023-01-28T08:02:59;99388.72;;;7.63;56.78
13124;BME280;6627;50.920;12.050;2023-01-28T08:05:37;99257.06;;;7.04;56.31
13124;BME280;6627;50.920;12.050;2023-01-28T08:08:07;99204.75;;;6.79;56.20
13124;BME280;6627;50.920;12.050;2023-01-28T08:10:36;99362.28;;;7.55;56.69
13124;BME280;6627;50.920;12.050;2023-01-28T08:13:04;99372.56;;;7.78;56.10
13124;BME280;6627;50.920;12.050;2023-01-28T08:15:33;99204.13;;;6.57;57.05
13124;BME280;6627;50.920;12.050;2023-01-28T08:18:03;99268.75;;;6.72;58.05
13124;BME280;6627;50.920;12.050;2023-01-28T08:20:32;99258.59;;;6.90;57.20
13124;BME280;6627;50.920;12.050;2023-01-28T08:23:05;99262.91;;;6.86;57.13
13124;BME280;6627;50.920;12.050;2023-01-28T08:25:33;99210.13;;;6.79;55.92
13124;BME280;6627;50.920;12.050;2023-01-28T08:28:00;99342.56;;;7.44;55.91
13124;BME280;6627;50.920;12.050;2023-01-28T08:30:29;99276.97;;;7.08;55.69
13124;BME280;6627;50.920;12.050;2023-01-28T08:32:58;99238.91;;;6.74;56.36
13124;BME280;6627;50.920;12.050;2023-01-28T08:35:27;99235.41;;;6.73;55.93
13124;BME280;6627;50.920;12.050;2023-01-28T08:37:59;99161.00;;;6.42;55.90
13124;BME280;6627;50.920;12.050;2023-01-28T08:40:27;99207.38;;;6.64;56.14
13124;BME280;6627;50.920;12.050;2023-01-28T08:42:55;99174.75;;;6.50;55.88
13124;BME280;6627;50.920;12.050;2023-01-28T08:45:25;99151.31;;;6.46;55.47
13124;BME280;6627;50.920;12.050;2023-01-28T08:47:54;99185.84;;;6.64;54.98
13124;BME280;6627;50.920;12.050;2023-01-28T08:50:25;99220.41;;;7.03;54.21
13124;BME280;6627;50.920;12.050;2023-01-28T08:52:58;99301.88;;;7.46;54.20
13124;BME280;6627;50.920;12.050;2023-01-28T08:55:27;99262.50;;;7.34;53.81
13124;BME280;6627;50.920;12.050;2023-01-28T08:57:55;99205.31;;;6.97;54.65
13124;BME280;6627;50.920;12.050;2023-01-28T09:00:22;99183.78;;;6.97;53.62
13124;BME280;6627;50.920;12.050;2023-01-28T09:02:51;99187.00;;;6.99;53.78
13124;BME280;6627;50.920;12.050;2023-01-28T09:05:19;99202.13;;;7.20;53.48
13124;BME280;6627;50.920;12.050;2023-01-28T09:07:47;99136.06;;;6.67;54.34
13124;BME280;6627;50.920;12.050;2023-01-28T09:10:17;99095.44;;;6.78;53.13
13124;BME280;6627;50.920;12.050;2023-01-28T09:12:45;99166.03;;;7.01;53.70
13124;BME280;6627;50.920;12.050;2023-01-28T09:15:13;99221.31;;;7.44;52.83
13124;BME280;6627;50.920;12.050;2023-01-28T09:17:41;99252.28;;;7.47;53.43
13124;BME280;6627;50.920;12.050;2023-01-28T09:20:10;99116.72;;;6.80;53.47
13124;BME280;6627;50.920;12.050;2023-01-28T09:22:38;99195.66;;;7.21;53.64
13124;BME280;6627;50.920;12.050;2023-01-28T09:25:06;99064.19;;;6.62;53.80
13124;BME280;6627;50.920;12.050;2023-01-28T09:27:35;99128.31;;;7.06;52.85
13124;BME280;6627;50.920;12.050;2023-01-28T09:30:05;98996.88;;;6.21;53.62
13124;BME280;6627;50.920;12.050;2023-01-28T09:32:33;99237.72;;;7.22;54.18
13124;BME280;6627;50.920;12.050;2023-01-28T09:35:02;99030.75;;;6.27;53.65
13124;BME280;6627;50.920;12.050;2023-01-28T09:37:29;99118.81;;;6.63;54.19
13124;BME280;6627;50.920;12.050;2023-01-28T09:39:57;99213.47;;;7.43;52.59
13124;BME280;6627;50.920;12.050;2023-01-28T09:42:42;99206.19;;;7.38;52.67
13124;BME280;6627;50.920;12.050;2023-01-28T09:45:16;99198.66;;;7.40;52.88
13124;BME280;6627;50.920;12.050;2023-01-28T09:47:51;98974.25;;;6.12;53.24
13124;BME280;6627;50.920;12.050;2023-01-28T09:50:30;99077.13;;;6.65;52.98
13124;BME280;6627;50.920;12.050;2023-01-28T09:53:04;99037.81;;;6.49;53.04
13124;BME280;6627;50.920;12.050;2023-01-28T09:55:37;99070.66;;;6.61;53.17
13124;BME280;6627;50.920;12.050;2023-01-28T09:58:11;99190.03;;;7.18;52.63
13124;BME280;6627;50.920;12.050;2023-01-28T10:00:51;98982.34;;;6.17;52.93
13124;BME280;6627;50.920;12.050;2023-01-28T10:03:43;99027.84;;;6.39;52.33
13124;BME280;6627;50.920;12.050;2023-01-28T10:06:29;99105.66;;;6.61;53.16
13124;BME280;6627;50.920;12.050;2023-01-28T10:09:32;99169.22;;;6.88;53.27
13124;BME280;6627;50.920;12.050;2023-01-28T10:15:12;99209.13;;;7.16;53.08
13124;BME280;6627;50.920;12.050;2023-01-28T10:17:49;98938.94;;;5.83;52.83
13124;BME280;6627;50.920;12.050;2023-01-28T10:20:25;99165.44;;;6.78;53.79
13124;BME280;6627;50.920;12.050;2023-01-28T10:23:05;99288.94;;;7.48;53.47
13124;BME280;6627;50.920;12.050;2023-01-28T10:25:40;99141.72;;;6.65;53.41
13124;BME280;6627;50.920;12.050;2023-01-28T10:28:19;99224.75;;;7.09;53.35
13124;BME280;6627;50.920;12.050;2023-01-28T10:30:50;99263.88;;;7.37;53.01
13124;BME280;6627;50.920;12.050;2023-01-28T10:33:23;99150.38;;;6.77;52.77
13124;BME280;6627;50.920;12.050;2023-01-28T10:35:55;99131.97;;;6.54;53.33
13124;BME280;6627;50.920;12.050;2023-01-28T10:38:26;99160.59;;;6.86;52.49
13124;BME280;6627;50.920;12.050;2023-01-28T10:41:00;99117.25;;;6.82;52.16
13124;BME280;6627;50.920;12.050;2023-01-28T10:43:32;99138.00;;;6.92;51.77
13124;BME280;6627;50.920;12.050;2023-01-28T10:46:06;99233.94;;;7.28;52.41
13124;BME280;6627;50.920;12.050;2023-01-28T10:48:43;99105.13;;;6.79;51.69
13124;BME280;6627;50.920;12.050;2023-01-28T10:51:12;99142.31;;;7.08;51.28
13124;BME280;6627;50.920;12.050;2023-01-28T10:53:42;99035.38;;;6.47;51.42
13124;BME280;6627;50.920;12.050;2023-01-28T10:56:15;99049.13;;;6.56;51.49
13124;BME280;6627;50.920;12.050;2023-01-28T10:58:56;99133.66;;;6.86;51.97
13124;BME280;6627;50.920;12.050;2023-01-28T11:01:39;99133.72;;;7.11;51.27
13124;BME280;6627;50.920;12.050;2023-01-28T11:04:17;99085.22;;;6.80;51.28
13124;BME280;6627;50.920;12.050;2023-01-28T11:06:57;99093.56;;;6.69;51.91
13124;BME280;6627;50.920;12.050;2023-01-28T11:09:27;99164.69;;;7.08;51.93
13124;BME280;6627;50.920;12.050;2023-01-28T11:12:09;99017.31;;;6.32;51.95
13124;BME280;6627;50.920;12.050;2023-01-28T11:14:37;99000.13;;;6.39;51.35
13124;BME280;6627;50.920;12.050;2023-01-28T11:17:16;99120.25;;;7.06;51.43
13124;BME280;6627;50.920;12.050;2023-01-28T11:19:45;98977.00;;;6.38;51.39
13124;BME280;6627;50.920;12.050;2023-01-28T11:22:25;99011.94;;;6.22;52.55
13124;BME280;6627;50.920;12.050;2023-01-28T11:24:55;98990.97;;;6.29;51.67
13124;BME280;6627;50.920;12.050;2023-01-28T11:27:29;99117.50;;;6.70;53.09
13124;BME280;6627;50.920;12.050;2023-01-28T11:29:59;99143.41;;;7.02;52.05
13124;BME280;6627;50.920;12.050;2023-01-28T11:32:32;99122.38;;;6.89;51.79
13124;BME280;6627;50.920;12.050;2023-01-28T11:35:00;99164.97;;;7.32;51.09
13124;BME280;6627;50.920;12.050;2023-01-28T11:37:27;99079.31;;;6.99;50.93
13124;BME280;6627;50.920;12.050;2023-01-28T11:40:14;99134.81;;;7.30;51.03
13124;BME280;6627;50.920;12.050;2023-01-28T11:42:45;99131.03;;;7.16;51.61
13124;BME280;6627;50.920;12.050;2023-01-28T11:45:16;98946.84;;;6.20;51.45
13124;BME280;6627;50.920;12.050;2023-01-28T11:48:13;98940.94;;;6.18;51.04
13124;BME280;6627;50.920;12.050;2023-01-28T11:50:55;99055.31;;;6.62;51.90
13124;BME280;6627;50.920;12.050;2023-01-28T11:53:45;99162.28;;;7.27;51.17
13124;BME280;6627;50.920;12.050;2023-01-28T11:56:39;99143.41;;;7.02;51.95
13124;BME280;6627;50.920;12.050;2023-01-28T11:59:40;99082.56;;;7.01;51.18
13124;BME280;6627;50.920;12.050;2023-01-28T12:02:34;98763.94;;;5.34;51.71
13124;BME280;6627;50.920;12.050;2023-01-28T12:05:28;99107.31;;;6.82;51.73
13124;BME280;6627;50.920;12.050;2023-01-28T12:08:08;98833.28;;;5.62;51.53
13124;BME280;6627;50.920;12.050;2023-01-28T12:10:59;98995.28;;;6.25;52.46
13124;BME280;6627;50.920;12.050;2023-01-28T12:13:47;99035.63;;;6.46;52.28
13124;BME280;6627;50.920;12.050;2023-01-28T12:16:37;99077.69;;;6.77;52.00
13124;BME280;6627;50.920;12.050;2023-01-28T12:19:33;99163.38;;;7.26;51.52
13124;BME280;6627;50.920;12.050;2023-01-28T12:22:27;98975.66;;;6.40;51.57
13124;BME280;6627;50.920;12.050;2023-01-28T12:25:17;99085.78;;;6.77;51.96
13124;BME280;6627;50.920;12.050;2023-01-28T12:27:56;99233.97;;;7.90;50.34
13124;BME280;6627;50.920;12.050;2023-01-28T12:30:55;98922.13;;;6.54;50.31
13124;BME280;6627;50.920;12.050;2023-01-28T12:33:47;98953.88;;;6.47;50.79
13124;BME280;6627;50.920;12.050;2023-01-28T12:36:30;99096.00;;;6.91;51.49
13124;BME280;6627;50.920;12.050;2023-01-28T12:39:15;99076.63;;;7.14;50.52
13124;BME280;6627;50.920;12.050;2023-01-28T12:41:50;98972.69;;;6.62;50.53
13124;BME280;6627;50.920;12.050;2023-01-28T12:44:25;98993.69;;;6.55;51.37
13124;BME280;6627;50.920;12.050;2023-01-28T12:47:00;99085.78;;;6.98;51.18
13124;BME280;6627;50.920;12.050;2023-01-28T12:49:37;99050.75;;;6.72;51.74
13124;BME280;6627;50.920;12.050;2023-01-28T12:52:14;98983.72;;;6.45;51.45
13124;BME280;6627;50.920;12.050;2023-01-28T12:54:56;99117.56;;;7.16;51.04
13124;BME280;6627;50.920;12.050;2023-01-28T12:57:28;98892.25;;;5.94;51.23
13124;BME280;6627;50.920;12.050;2023-01-28T13:00:05;99140.75;;;7.22;51.42
13124;BME280;6627;50.920;12.050;2023-01-28T13:02:46;99179.22;;;7.79;49.70
13124;BME280;6627;50.920;12.050;2023-01-28T13:05:25;98949.03;;;6.54;51.10
13124;BME280;6627;50.920;12.050;2023-01-28T13:07:58;98978.38;;;6.55;51.47
13124;BME280;6627;50.920;12.050;2023-01-28T13:10:36;98952.78;;;6.53;50.18
13124;BME280;6627;50.920;12.050;2023-01-28T13:13:05;98890.94;;;6.38;50.19
13124;BME280;6627;50.920;12.050;2023-01-28T13:15:38;98940.13;;;6.28;51.03
13124;BME280;6627;50.920;12.050;2023-01-28T13:18:06;99099.78;;;7.15;50.38
13124;BME280;6627;50.920;12.050;2023-01-28T13:20:45;98998.00;;;6.87;50.15
13124;BME280;6627;50.920;12.050;2023-01-28T13:23:24;99028.94;;;6.99;49.93
13124;BME280;6627;50.920;12.050;2023-01-28T13:25:55;99104.38;;;7.35;49.42
13124;BME280;6627;50.920;12.050;2023-01-28T13:28:29;99082.53;;;7.31;49.59
13124;BME280;6627;50.920;12.050;2023-01-28T13:31:02;99168.72;;;7.82;49.01
13124;BME280;6627;50.920;12.050;2023-01-28T13:33:34;99158.41;;;8.10;47.67
13124;BME280;6627;50.920;12.050;2023-01-28T13:36:20;99132.56;;;7.94;48.06
13124;BME280;6627;50.920;12.050;2023-01-28T13:39:01;98967.28;;;7.13;49.21
13124;BME280;6627;50.920;12.050;2023-01-28T13:41:43;98951.66;;;7.10;48.78
13124;BME280;6627;50.920;12.050;2023-01-28T13:44:20;98902.19;;;6.75;49.14